sensor_id;sensor_type;location;lat;lon;timestamp;P1;durP1;ratioP1;P2;durP2;ratioP2
27758;SDS011;15148;48.972;12.794;2023-11-21T00:01:57;3.05;;;2.15;;
27758;SDS011;15148;48.972;12.794;2023-11-21T00:07:00;5.10;;;2.08;;
27758;SDS011;15148;48.972;12.794;2023-11-21T00:12:02;4.78;;;1.92;;
27758;SDS011;15148;48.972;12.794;2023-11-21T00:17:04;5.50;;;2.05;;
27758;SDS011;15148;48.972;12.794;2023-11-21T00:22:07;2.22;;;1.85;;
27758;SDS011;15148;48.972;12.794;2023-11-21T00:27:10;5.38;;;2.38;;
27758;SDS011;15148;48.972;12.794;2023-11-21T00:32:12;4.68;;;2.20;;
27758;SDS011;15148;48.972;12.794;2023-11-21T00:37:14;3.50;;;2.67;;
27758;SDS011;15148;48.972;12.794;2023-11-21T00:42:16;4.25;;;2.45;;
27758;SDS011;15148;48.972;12.794;2023-11-21T00:47:19;3.33;;;2.38;;
27758;SDS011;15148;48.972;12.794;2023-11-21T00:52:21;8.32;;;2.88;;
27758;SDS011;15148;48.972;12.794;2023-11-21T00:57:23;7.28;;;3.30;;
27758;SDS011;15148;48.972;12.794;2023-11-21T01:02:24;3.15;;;2.85;;
27758;SDS011;15148;48.972;12.794;2023-11-21T01:07:27;6.60;;;3.55;;
27758;SDS011;15148;48.972;12.794;2023-11-21T01:12:29;4.55;;;3.22;;
27758;SDS011;15148;48.972;12.794;2023-11-21T01:17:31;4.10;;;3.10;;
27758;SDS011;15148;48.972;12.794;2023-11-21T01:22:33;7.65;;;3.10;;
27758;SDS011;15148;48.972;12.794;2023-11-21T01:27:35;4.97;;;2.90;;
27758;SDS011;15148;48.972;12.794;2023-11-21T01:32:38;6.00;;;3.28;;
27758;SDS011;15148;48.972;12.794;2023-11-21T01:37:41;7.57;;;4.07;;
27758;SDS011;15148;48.972;12.794;2023-11-21T01:42:44;7.38;;;4.28;;
27758;SDS011;15148;48.972;12.794;2023-11-21T01:47:48;4.63;;;4.20;;
27758;SDS011;15148;48.972;12.794;2023-11-21T01:52:50;5.05;;;4.50;;
27758;SDS011;15148;48.972;12.794;2023-11-21T01:57:53;4.65;;;4.20;;
27758;SDS011;15148;48.972;12.794;2023-11-21T02:02:56;11.32;;;8.18;;
27758;SDS011;15148;48.972;12.794;2023-11-21T02:07:59;7.97;;;7.18;;
27758;SDS011;15148;48.972;12.794;2023-11-21T02:13:02;10.15;;;8.70;;
27758;SDS011;15148;48.972;12.794;2023-11-21T02:18:05;9.90;;;8.68;;
27758;SDS011;15148;48.972;12.794;2023-11-21T02:23:07;13.98;;;10.85;;
27758;SDS011;15148;48.972;12.794;2023-11-21T02:28:09;15.57;;;11.55;;
27758;SDS011;15148;48.972;12.794;2023-11-21T02:33:14;14.07;;;11.93;;
27758;SDS011;15148;48.972;12.794;2023-11-21T02:38:16;18.45;;;12.85;;
27758;SDS011;15148;48.972;12.794;2023-11-21T02:43:19;15.18;;;13.32;;
27758;SDS011;15148;48.972;12.794;2023-11-21T02:48:21;18.27;;;12.57;;
27758;SDS011;15148;48.972;12.794;2023-11-21T02:53:27;14.50;;;13.07;;
27758;SDS011;15148;48.972;12.794;2023-11-21T02:58:28;16.85;;;14.10;;
27758;SDS011;15148;48.972;12.794;2023-11-21T03:03:30;18.75;;;13.30;;
27758;SDS011;15148;48.972;12.794;2023-11-21T03:08:32;15.15;;;13.57;;
27758;SDS011;15148;48.972;12.794;2023-11-21T03:13:34;16.92;;;13.23;;
27758;SDS011;15148;48.972;12.794;2023-11-21T03:18:36;17.50;;;13.88;;
27758;SDS011;15148;48.972;12.794;2023-11-21T03:23:41;14.20;;;11.75;;
27758;SDS011;15148;48.972;12.794;2023-11-21T03:28:43;19.92;;;13.20;;
27758;SDS011;15148;48.972;12.794;2023-11-21T03:33:45;14.82;;;11.95;;
27758;SDS011;15148;48.972;12.794;2023-11-21T03:38:48;15.43;;;13.70;;
27758;SDS011;15148;48.972;12.794;2023-11-21T03:43:50;12.93;;;11.38;;
27758;SDS011;15148;48.972;12.794;2023-11-21T03:48:52;12.48;;;11.27;;
27758;SDS011;15148;48.972;12.794;2023-11-21T03:53:56;15.50;;;13.93;;
27758;SDS011;15148;48.972;12.794;2023-11-21T03:58:57;14.88;;;12.82;;
27758;SDS011;15148;48.972;12.794;2023-11-21T04:03:59;16.70;;;13.20;;
27758;SDS011;15148;48.972;12.794;2023-11-21T04:09:01;13.85;;;12.43;;
27758;SDS011;15148;48.972;12.794;2023-11-21T04:14:05;17.05;;;13.07;;
27758;SDS011;15148;48.972;12.794;2023-11-21T04:19:08;16.83;;;12.35;;
27758;SDS011;15148;48.972;12.794;2023-11-21T04:24:16;16.85;;;13.50;;
27758;SDS011;15148;48.972;12.794;2023-11-21T04:29:18;15.07;;;12.88;;
27758;SDS011;15148;48.972;12.794;2023-11-21T04:34:19;17.27;;;15.40;;
27758;SDS011;15148;48.972;12.794;2023-11-21T04:39:21;26.10;;;23.23;;
27758;SDS011;15148;48.972;12.794;2023-11-21T04:44:23;15.27;;;13.63;;
27758;SDS011;15148;48.972;12.794;2023-11-21T04:49:25;17.33;;;13.95;;
27758;SDS011;15148;48.972;12.794;2023-11-21T04:54:28;19.48;;;12.95;;
27758;SDS011;15148;48.972;12.794;2023-11-21T04:59:31;13.50;;;11.32;;
27758;SDS011;15148;48.972;12.794;2023-11-21T05:04:33;14.73;;;11.15;;
27758;SDS011;15148;48.972;12.794;2023-11-21T05:09:35;17.83;;;11.27;;
27758;SDS011;15148;48.972;12.794;2023-11-21T05:14:39;16.83;;;11.23;;
27758;SDS011;15148;48.972;12.794;2023-11-21T05:19:40;11.88;;;9.43;;
27758;SDS011;15148;48.972;12.794;2023-11-21T05:24:42;8.95;;;7.13;;
27758;SDS011;15148;48.972;12.794;2023-11-21T05:29:44;8.02;;;4.30;;
27758;SDS011;15148;48.972;12.794;2023-11-21T05:34:46;5.72;;;4.13;;
27758;SDS011;15148;48.972;12.794;2023-11-21T05:39:48;10.98;;;6.93;;
27758;SDS011;15148;48.972;12.794;2023-11-21T05:44:51;10.77;;;8.13;;
27758;SDS011;15148;48.972;12.794;2023-11-21T05:49:53;16.05;;;12.35;;
27758;SDS011;15148;48.972;12.794;2023-11-21T05:54:54;16.85;;;11.68;;
27758;SDS011;15148;48.972;12.794;2023-11-21T05:59:56;14.75;;;13.20;;
27758;SDS011;15148;48.972;12.794;2023-11-21T06:04:58;17.85;;;14.55;;
27758;SDS011;15148;48.972;12.794;2023-11-21T06:10:02;18.15;;;12.98;;
27758;SDS011;15148;48.972;12.794;2023-11-21T06:15:08;15.90;;;14.00;;
27758;SDS011;15148;48.972;12.794;2023-11-21T06:20:11;15.57;;;13.82;;
27758;SDS011;15148;48.972;12.794;2023-11-21T06:25:16;22.40;;;16.88;;
27758;SDS011;15148;48.972;12.794;2023-11-21T06:30:18;21.30;;;16.88;;
27758;SDS011;15148;48.972;12.794;2023-11-21T06:35:21;21.75;;;17.02;;
27758;SDS011;15148;48.972;12.794;2023-11-21T06:40:23;23.65;;;17.40;;
27758;SDS011;15148;48.972;12.794;2023-11-21T06:45:26;22.20;;;16.38;;
27758;SDS011;15148;48.972;12.794;2023-11-21T06:50:28;22.17;;;15.95;;
27758;SDS011;15148;48.972;12.794;2023-11-21T06:55:30;21.70;;;15.80;;
27758;SDS011;15148;48.972;12.794;2023-11-21T07:00:32;21.08;;;16.85;;
27758;SDS011;15148;48.972;12.794;2023-11-21T07:05:34;21.70;;;16.35;;
27758;SDS011;15148;48.972;12.794;2023-11-21T07:10:37;24.33;;;17.13;;
27758;SDS011;15148;48.972;12.794;2023-11-21T07:15:39;22.30;;;16.83;;
27758;SDS011;15148;48.972;12.794;2023-11-21T07:20:41;17.45;;;14.10;;
27758;SDS011;15148;48.972;12.794;2023-11-21T07:25:43;24.67;;;17.05;;
27758;SDS011;15148;48.972;12.794;2023-11-21T07:30:45;20.67;;;14.38;;
27758;SDS011;15148;48.972;12.794;2023-11-21T07:35:47;20.63;;;15.40;;
27758;SDS011;15148;48.972;12.794;2023-11-21T07:40:49;17.38;;;13.90;;
27758;SDS011;15148;48.972;12.794;2023-11-21T07:45:51;16.77;;;13.07;;
27758;SDS011;15148;48.972;12.794;2023-11-21T07:50:53;20.17;;;13.90;;
27758;SDS011;15148;48.972;12.794;2023-11-21T07:55:58;18.80;;;13.20;;
27758;SDS011;15148;48.972;12.794;2023-11-21T08:01:04;12.25;;;10.98;;
27758;SDS011;15148;48.972;12.794;2023-11-21T08:06:06;17.70;;;13.05;;
27758;SDS011;15148;48.972;12.794;2023-11-21T08:11:08;12.65;;;10.48;;
27758;SDS011;15148;48.972;12.794;2023-11-21T08:16:11;11.23;;;9.65;;
27758;SDS011;15148;48.972;12.794;2023-11-21T08:21:13;12.13;;;8.15;;
27758;SDS011;15148;48.972;12.794;2023-11-21T08:26:16;9.82;;;8.25;;
27758;SDS011;15148;48.972;12.794;2023-11-21T08:31:25;11.60;;;8.35;;
27758;SDS011;15148;48.972;12.794;2023-11-21T08:36:28;16.52;;;12.32;;
27758;SDS011;15148;48.972;12.794;2023-11-21T08:41:30;13.82;;;9.35;;
27758;SDS011;15148;48.972;12.794;2023-11-21T08:46:32;11.45;;;9.10;;
27758;SDS011;15148;48.972;12.794;2023-11-21T08:51:35;12.60;;;9.27;;
27758;SDS011;15148;48.972;12.794;2023-11-21T08:56:37;8.77;;;7.80;;
27758;SDS011;15148;48.972;12.794;2023-11-21T09:01:39;7.68;;;6.88;;
27758;SDS011;15148;48.972;12.794;2023-11-21T09:06:41;6.63;;;5.50;;
27758;SDS011;15148;48.972;12.794;2023-11-21T09:11:43;8.13;;;6.72;;
27758;SDS011;15148;48.972;12.794;2023-11-21T09:16:47;6.50;;;5.68;;
27758;SDS011;15148;48.972;12.794;2023-11-21T09:21:49;8.75;;;5.28;;
27758;SDS011;15148;48.972;12.794;2023-11-21T09:26:50;7.90;;;4.63;;
27758;SDS011;15148;48.972;12.794;2023-11-21T09:31:52;9.80;;;6.15;;
27758;SDS011;15148;48.972;12.794;2023-11-21T09:36:56;8.98;;;7.53;;
27758;SDS011;15148;48.972;12.794;2023-11-21T09:41:59;7.55;;;6.38;;
27758;SDS011;15148;48.972;12.794;2023-11-21T09:47:18;7.43;;;5.28;;
27758;SDS011;15148;48.972;12.794;2023-11-21T09:52:22;6.95;;;4.90;;
27758;SDS011;15148;48.972;12.794;2023-11-21T09:57:27;5.85;;;4.50;;
27758;SDS011;15148;48.972;12.794;2023-11-21T10:02:30;9.00;;;5.10;;
27758;SDS011;15148;48.972;12.794;2023-11-21T10:07:38;7.50;;;4.68;;
27758;SDS011;15148;48.972;12.794;2023-11-21T10:12:41;5.85;;;5.25;;
27758;SDS011;15148;48.972;12.794;2023-11-21T10:17:49;7.00;;;5.75;;
27758;SDS011;15148;48.972;12.794;2023-11-21T10:22:54;7.30;;;5.07;;
27758;SDS011;15148;48.972;12.794;2023-11-21T10:27:58;6.57;;;5.10;;
27758;SDS011;15148;48.972;12.794;2023-11-21T10:33:06;9.98;;;6.05;;
27758;SDS011;15148;48.972;12.794;2023-11-21T10:38:12;8.40;;;5.13;;
27758;SDS011;15148;48.972;12.794;2023-11-21T10:43:15;7.28;;;5.45;;
27758;SDS011;15148;48.972;12.794;2023-11-21T10:48:18;9.18;;;5.38;;
27758;SDS011;15148;48.972;12.794;2023-11-21T10:53:21;6.82;;;5.63;;
27758;SDS011;15148;48.972;12.794;2023-11-21T10:58:23;17.48;;;10.65;;
27758;SDS011;15148;48.972;12.794;2023-11-21T11:03:26;13.32;;;7.65;;
27758;SDS011;15148;48.972;12.794;2023-11-21T11:08:28;9.73;;;5.47;;
27758;SDS011;15148;48.972;12.794;2023-11-21T11:13:31;5.80;;;5.25;;
27758;SDS011;15148;48.972;12.794;2023-11-21T11:18:33;7.60;;;6.05;;
27758;SDS011;15148;48.972;12.794;2023-11-21T11:29:33;6.30;;;5.60;;
27758;SDS011;15148;48.972;12.794;2023-11-21T11:34:48;6.97;;;6.30;;
27758;SDS011;15148;48.972;12.794;2023-11-21T11:40:00;7.70;;;6.53;;
27758;SDS011;15148;48.972;12.794;2023-11-21T11:45:05;7.55;;;6.80;;
27758;SDS011;15148;48.972;12.794;2023-11-21T11:50:19;8.30;;;7.32;;
27758;SDS011;15148;48.972;12.794;2023-11-21T11:55:21;10.23;;;8.38;;
27758;SDS011;15148;48.972;12.794;2023-11-21T12:05:32;9.88;;;7.70;;
27758;SDS011;15148;48.972;12.794;2023-11-21T12:10:40;8.32;;;7.53;;
27758;SDS011;15148;48.972;12.794;2023-11-21T12:15:44;8.85;;;7.63;;
27758;SDS011;15148;48.972;12.794;2023-11-21T12:20:47;8.80;;;7.55;;
27758;SDS011;15148;48.972;12.794;2023-11-21T12:25:51;12.32;;;8.73;;
27758;SDS011;15148;48.972;12.794;2023-11-21T12:30:54;11.52;;;8.73;;
27758;SDS011;15148;48.972;12.794;2023-11-21T12:36:15;9.63;;;8.15;;
27758;SDS011;15148;48.972;12.794;2023-11-21T12:41:17;12.48;;;9.63;;
27758;SDS011;15148;48.972;12.794;2023-11-21T12:46:19;11.02;;;9.13;;
27758;SDS011;15148;48.972;12.794;2023-11-21T12:51:22;11.55;;;9.27;;
27758;SDS011;15148;48.972;12.794;2023-11-21T12:56:24;12.63;;;9.20;;
27758;SDS011;15148;48.972;12.794;2023-11-21T13:01:26;11.32;;;8.77;;
27758;SDS011;15148;48.972;12.794;2023-11-21T13:06:29;10.50;;;8.80;;
27758;SDS011;15148;48.972;12.794;2023-11-21T13:11:38;12.02;;;9.40;;
27758;SDS011;15148;48.972;12.794;2023-11-21T13:16:42;10.70;;;8.65;;
27758;SDS011;15148;48.972;12.794;2023-11-21T13:21:47;8.95;;;7.75;;
27758;SDS011;15148;48.972;12.794;2023-11-21T13:26:49;12.32;;;9.10;;
27758;SDS011;15148;48.972;12.794;2023-11-21T13:31:52;11.18;;;8.65;;
27758;SDS011;15148;48.972;12.794;2023-11-21T13:36:55;12.32;;;8.48;;
27758;SDS011;15148;48.972;12.794;2023-11-21T13:42:00;11.15;;;8.77;;
27758;SDS011;15148;48.972;12.794;2023-11-21T13:47:02;13.23;;;8.50;;
27758;SDS011;15148;48.972;12.794;2023-11-21T13:52:04;10.32;;;8.52;;
27758;SDS011;15148;48.972;12.794;2023-11-21T13:57:10;9.82;;;7.75;;
27758;SDS011;15148;48.972;12.794;2023-11-21T14:02:12;9.05;;;7.85;;
27758;SDS011;15148;48.972;12.794;2023-11-21T14:07:21;9.35;;;6.70;;
27758;SDS011;15148;48.972;12.794;2023-11-21T14:12:35;10.73;;;7.03;;
27758;SDS011;15148;48.972;12.794;2023-11-21T14:17:40;7.22;;;6.05;;
27758;SDS011;15148;48.972;12.794;2023-11-21T14:22:43;10.00;;;7.60;;
27758;SDS011;15148;48.972;12.794;2023-11-21T14:27:45;10.52;;;7.65;;
27758;SDS011;15148;48.972;12.794;2023-11-21T14:32:48;9.02;;;7.68;;
27758;SDS011;15148;48.972;12.794;2023-11-21T14:37:52;18.35;;;11.98;;
27758;SDS011;15148;48.972;12.794;2023-11-21T14:42:55;18.70;;;11.07;;
27758;SDS011;15148;48.972;12.794;2023-11-21T14:47:58;8.45;;;7.38;;
27758;SDS011;15148;48.972;12.794;2023-11-21T14:53:18;10.90;;;8.27;;
27758;SDS011;15148;48.972;12.794;2023-11-21T14:58:39;9.60;;;8.45;;
27758;SDS011;15148;48.972;12.794;2023-11-21T15:03:42;10.52;;;8.38;;
27758;SDS011;15148;48.972;12.794;2023-11-21T15:08:52;10.25;;;8.13;;
27758;SDS011;15148;48.972;12.794;2023-11-21T15:14:08;9.50;;;7.68;;
27758;SDS011;15148;48.972;12.794;2023-11-21T15:19:11;4.43;;;3.50;;
27758;SDS011;15148;48.972;12.794;2023-11-21T15:24:20;4.30;;;2.50;;
27758;SDS011;15148;48.972;12.794;2023-11-21T15:29:22;4.03;;;3.28;;
27758;SDS011;15148;48.972;12.794;2023-11-21T15:34:24;4.88;;;3.45;;
27758;SDS011;15148;48.972;12.794;2023-11-21T15:39:29;4.78;;;3.58;;
27758;SDS011;15148;48.972;12.794;2023-11-21T15:44:32;4.05;;;2.40;;
27758;SDS011;15148;48.972;12.794;2023-11-21T15:49:34;4.03;;;2.50;;
27758;SDS011;15148;48.972;12.794;2023-11-21T15:54:40;5.38;;;3.10;;
27758;SDS011;15148;48.972;12.794;2023-11-21T15:59:42;4.10;;;3.38;;
27758;SDS011;15148;48.972;12.794;2023-11-21T16:04:46;4.55;;;4.10;;
27758;SDS011;15148;48.972;12.794;2023-11-21T16:09:49;4.90;;;3.78;;
27758;SDS011;15148;48.972;12.794;2023-11-21T16:14:52;5.32;;;4.18;;
27758;SDS011;15148;48.972;12.794;2023-11-21T16:19:56;4.63;;;3.53;;
27758;SDS011;15148;48.972;12.794;2023-11-21T16:24:59;7.45;;;4.32;;
27758;SDS011;15148;48.972;12.794;2023-11-21T16:30:03;5.35;;;3.78;;
27758;SDS011;15148;48.972;12.794;2023-11-21T16:35:08;4.97;;;3.35;;
27758;SDS011;15148;48.972;12.794;2023-11-21T16:40:11;7.00;;;4.57;;
27758;SDS011;15148;48.972;12.794;2023-11-21T16:45:14;11.60;;;3.20;;
27758;SDS011;15148;48.972;12.794;2023-11-21T16:50:16;3.58;;;3.28;;
27758;SDS011;15148;48.972;12.794;2023-11-21T16:55:19;8.05;;;4.78;;
27758;SDS011;15148;48.972;12.794;2023-11-21T17:00:22;6.85;;;4.35;;
27758;SDS011;15148;48.972;12.794;2023-11-21T17:05:25;5.60;;;4.07;;
27758;SDS011;15148;48.972;12.794;2023-11-21T17:10:27;5.13;;;4.50;;
27758;SDS011;15148;48.972;12.794;2023-11-21T17:15:29;10.32;;;8.77;;
27758;SDS011;15148;48.972;12.794;2023-11-21T17:20:32;5.78;;;4.57;;
27758;SDS011;15148;48.972;12.794;2023-11-21T17:25:35;7.53;;;6.15;;
27758;SDS011;15148;48.972;12.794;2023-11-21T17:30:38;11.48;;;7.65;;
27758;SDS011;15148;48.972;12.794;2023-11-21T17:35:40;7.15;;;5.35;;
27758;SDS011;15148;48.972;12.794;2023-11-21T17:40:43;6.90;;;5.35;;
27758;SDS011;15148;48.972;12.794;2023-11-21T17:45:46;6.78;;;5.57;;
27758;SDS011;15148;48.972;12.794;2023-11-21T17:50:48;8.93;;;6.00;;
27758;SDS011;15148;48.972;12.794;2023-11-21T17:55:51;5.10;;;4.22;;
27758;SDS011;15148;48.972;12.794;2023-11-21T18:00:53;11.38;;;6.55;;
27758;SDS011;15148;48.972;12.794;2023-11-21T18:05:57;5.25;;;4.75;;
27758;SDS011;15148;48.972;12.794;2023-11-21T18:11:00;7.68;;;6.32;;
27758;SDS011;15148;48.972;12.794;2023-11-21T18:16:03;12.35;;;8.15;;
27758;SDS011;15148;48.972;12.794;2023-11-21T18:21:06;15.00;;;10.32;;
27758;SDS011;15148;48.972;12.794;2023-11-21T18:26:08;13.60;;;8.65;;
27758;SDS011;15148;48.972;12.794;2023-11-21T18:31:11;14.32;;;11.18;;
27758;SDS011;15148;48.972;12.794;2023-11-21T18:36:14;9.45;;;7.35;;
27758;SDS011;15148;48.972;12.794;2023-11-21T18:41:23;11.70;;;6.65;;
27758;SDS011;15148;48.972;12.794;2023-11-21T18:46:27;42.75;;;26.67;;
27758;SDS011;15148;48.972;12.794;2023-11-21T18:51:30;8.82;;;6.47;;
27758;SDS011;15148;48.972;12.794;2023-11-21T18:56:34;26.67;;;20.13;;
27758;SDS011;15148;48.972;12.794;2023-11-21T19:01:36;14.82;;;11.13;;
27758;SDS011;15148;48.972;12.794;2023-11-21T19:06:40;4.75;;;3.55;;
27758;SDS011;15148;48.972;12.794;2023-11-21T19:11:44;7.50;;;5.25;;
27758;SDS011;15148;48.972;12.794;2023-11-21T19:16:46;12.30;;;10.32;;
27758;SDS011;15148;48.972;12.794;2023-11-21T19:21:50;13.25;;;8.80;;
27758;SDS011;15148;48.972;12.794;2023-11-21T19:26:52;11.77;;;6.55;;
27758;SDS011;15148;48.972;12.794;2023-11-21T19:31:54;9.75;;;6.03;;
27758;SDS011;15148;48.972;12.794;2023-11-21T19:36:56;8.85;;;6.25;;
27758;SDS011;15148;48.972;12.794;2023-11-21T19:41:59;9.52;;;7.57;;
27758;SDS011;15148;48.972;12.794;2023-11-21T19:47:01;57.08;;;37.70;;
27758;SDS011;15148;48.972;12.794;2023-11-21T19:52:03;55.15;;;42.40;;
27758;SDS011;15148;48.972;12.794;2023-11-21T19:57:08;34.75;;;27.08;;
27758;SDS011;15148;48.972;12.794;2023-11-21T20:02:13;35.33;;;30.70;;
27758;SDS011;15148;48.972;12.794;2023-11-21T20:07:15;24.00;;;21.70;;
27758;SDS011;15148;48.972;12.794;2023-11-21T20:12:22;17.10;;;14.90;;
27758;SDS011;15148;48.972;12.794;2023-11-21T20:17:24;20.70;;;18.60;;
27758;SDS011;15148;48.972;12.794;2023-11-21T20:22:26;10.93;;;9.63;;
27758;SDS011;15148;48.972;12.794;2023-11-21T20:27:29;8.50;;;7.47;;
27758;SDS011;15148;48.972;12.794;2023-11-21T20:32:31;8.20;;;7.40;;
27758;SDS011;15148;48.972;12.794;2023-11-21T20:37:33;7.13;;;6.45;;
27758;SDS011;15148;48.972;12.794;2023-11-21T20:42:36;19.55;;;17.75;;
27758;SDS011;15148;48.972;12.794;2023-11-21T20:47:43;10.95;;;10.00;;
27758;SDS011;15148;48.972;12.794;2023-11-21T20:52:46;7.80;;;6.30;;
27758;SDS011;15148;48.972;12.794;2023-11-21T20:57:48;8.60;;;7.72;;
27758;SDS011;15148;48.972;12.794;2023-11-21T21:02:50;15.60;;;14.00;;
27758;SDS011;15148;48.972;12.794;2023-11-21T21:07:54;14.10;;;10.32;;
27758;SDS011;15148;48.972;12.794;2023-11-21T21:12:57;11.43;;;9.73;;
27758;SDS011;15148;48.972;12.794;2023-11-21T21:17:59;12.45;;;7.47;;
27758;SDS011;15148;48.972;12.794;2023-11-21T21:23:02;8.48;;;7.38;;
27758;SDS011;15148;48.972;12.794;2023-11-21T21:28:05;11.77;;;8.25;;
27758;SDS011;15148;48.972;12.794;2023-11-21T21:33:07;9.35;;;6.20;;
27758;SDS011;15148;48.972;12.794;2023-11-21T21:38:09;6.63;;;5.82;;
27758;SDS011;15148;48.972;12.794;2023-11-21T21:43:13;7.05;;;6.40;;
27758;SDS011;15148;48.972;12.794;2023-11-21T21:48:15;8.25;;;6.93;;
27758;SDS011;15148;48.972;12.794;2023-11-21T21:53:17;8.85;;;7.03;;
27758;SDS011;15148;48.972;12.794;2023-11-21T21:58:19;7.43;;;6.60;;
27758;SDS011;15148;48.972;12.794;2023-11-21T22:03:21;6.82;;;5.50;;
27758;SDS011;15148;48.972;12.794;2023-11-21T22:08:24;7.93;;;6.05;;
27758;SDS011;15148;48.972;12.794;2023-11-21T22:13:27;6.78;;;5.20;;
27758;SDS011;15148;48.972;12.794;2023-11-21T22:18:29;4.57;;;4.18;;
27758;SDS011;15148;48.972;12.794;2023-11-21T22:23:31;4.82;;;4.43;;
27758;SDS011;15148;48.972;12.794;2023-11-21T22:28:33;5.07;;;4.60;;
27758;SDS011;15148;48.972;12.794;2023-11-21T22:33:36;5.28;;;4.75;;
27758;SDS011;15148;48.972;12.794;2023-11-21T22:38:39;5.15;;;4.72;;
27758;SDS011;15148;48.972;12.794;2023-11-21T22:43:42;5.00;;;4.50;;
27758;SDS011;15148;48.972;12.794;2023-11-21T22:48:45;4.25;;;3.85;;
27758;SDS011;15148;48.972;12.794;2023-11-21T22:53:47;4.57;;;4.18;;
27758;SDS011;15148;48.972;12.794;2023-11-21T22:58:50;4.15;;;3.80;;
27758;SDS011;15148;48.972;12.794;2023-11-21T23:03:52;4.38;;;3.97;;
27758;SDS011;15148;48.972;12.794;2023-11-21T23:08:54;4.18;;;3.80;;
27758;SDS011;15148;48.972;12.794;2023-11-21T23:13:56;4.25;;;3.85;;
27758;SDS011;15148;48.972;12.794;2023-11-21T23:18:58;4.18;;;3.88;;
27758;SDS011;15148;48.972;12.794;2023-11-21T23:24:00;4.07;;;3.60;;
27758;SDS011;15148;48.972;12.794;2023-11-21T23:29:08;4.32;;;3.92;;
27758;SDS011;15148;48.972;12.794;2023-11-21T23:34:10;3.55;;;3.22;;
27758;SDS011;15148;48.972;12.794;2023-11-21T23:39:13;3.25;;;2.95;;
27758;SDS011;15148;48.972;12.794;2023-11-21T23:44:15;2.20;;;2.00;;
27758;SDS011;15148;48.972;12.794;2023-11-21T23:49:17;2.47;;;2.25;;
27758;SDS011;15148;48.972;12.794;2023-11-21T23:54:20;1.92;;;1.83;;
27758;SDS011;15148;48.972;12.794;2023-11-21T23:59:23;2.03;;;1.83;;
